sensor_id;sensor_type;location;lat;lon;timestamp;temperature;humidity
52611;DHT22;38727;40.130;18.292;2024-01-30T00:02:14;8.10;51.00
52611;DHT22;38727;40.130;18.292;2024-01-30T00:04:44;8.00;51.20
52611;DHT22;38727;40.130;18.292;2024-01-30T00:07:15;7.90;51.60
52611;DHT22;38727;40.130;18.292;2024-01-30T00:09:48;7.80;51.80
52611;DHT22;38727;40.130;18.292;2024-01-30T00:12:19;7.70;52.10
52611;DHT22;38727;40.130;18.292;2024-01-30T00:14:49;7.60;52.30
52611;DHT22;38727;40.130;18.292;2024-01-30T00:17:20;7.50;52.70
52611;DHT22;38727;40.130;18.292;2024-01-30T00:19:50;7.40;52.80
52611;DHT22;38727;40.130;18.292;2024-01-30T00:22:21;7.30;52.80
52611;DHT22;38727;40.130;18.292;2024-01-30T00:24:54;7.30;52.90
52611;DHT22;38727;40.130;18.292;2024-01-30T00:27:25;7.30;52.90
52611;DHT22;38727;40.130;18.292;2024-01-30T00:29:55;7.30;53.00
52611;DHT22;38727;40.130;18.292;2024-01-30T00:32:26;7.20;53.10
52611;DHT22;38727;40.130;18.292;2024-01-30T00:34:57;7.10;53.20
52611;DHT22;38727;40.130;18.292;2024-01-30T00:37:28;7.10;53.30
52611;DHT22;38727;40.130;18.292;2024-01-30T00:40:00;7.10;53.30
52611;DHT22;38727;40.130;18.292;2024-01-30T00:42:30;7.10;53.40
52611;DHT22;38727;40.130;18.292;2024-01-30T00:45:00;7.10;53.50
52611;DHT22;38727;40.130;18.292;2024-01-30T00:47:32;6.90;53.70
52611;DHT22;38727;40.130;18.292;2024-01-30T00:50:03;6.90;53.80
52611;DHT22;38727;40.130;18.292;2024-01-30T00:52:33;6.90;53.90
52611;DHT22;38727;40.130;18.292;2024-01-30T00:55:08;6.90;53.90
52611;DHT22;38727;40.130;18.292;2024-01-30T00:57:38;6.90;53.80
52611;DHT22;38727;40.130;18.292;2024-01-30T01:00:09;6.90;53.60
52611;DHT22;38727;40.130;18.292;2024-01-30T01:02:40;6.80;53.60
52611;DHT22;38727;40.130;18.292;2024-01-30T01:05:10;6.80;53.60
52611;DHT22;38727;40.130;18.292;2024-01-30T01:07:39;6.80;53.70
52611;DHT22;38727;40.130;18.292;2024-01-30T01:10:13;6.80;53.70
52611;DHT22;38727;40.130;18.292;2024-01-30T01:12:44;6.80;53.80
52611;DHT22;38727;40.130;18.292;2024-01-30T01:15:15;6.80;53.80
52611;DHT22;38727;40.130;18.292;2024-01-30T01:17:46;6.80;53.80
52611;DHT22;38727;40.130;18.292;2024-01-30T01:20:16;6.70;53.90
52611;DHT22;38727;40.130;18.292;2024-01-30T01:22:46;6.70;54.10
52611;DHT22;38727;40.130;18.292;2024-01-30T01:25:18;6.60;54.10
52611;DHT22;38727;40.130;18.292;2024-01-30T01:27:49;6.60;54.30
52611;DHT22;38727;40.130;18.292;2024-01-30T01:30:20;6.70;54.20
52611;DHT22;38727;40.130;18.292;2024-01-30T01:32:51;6.70;54.00
52611;DHT22;38727;40.130;18.292;2024-01-30T01:35:24;6.70;53.90
52611;DHT22;38727;40.130;18.292;2024-01-30T01:37:55;6.70;53.90
52611;DHT22;38727;40.130;18.292;2024-01-30T01:40:28;6.60;53.90
52611;DHT22;38727;40.130;18.292;2024-01-30T01:42:58;6.60;54.00
52611;DHT22;38727;40.130;18.292;2024-01-30T01:45:29;6.60;54.20
52611;DHT22;38727;40.130;18.292;2024-01-30T01:48:00;6.60;54.10
52611;DHT22;38727;40.130;18.292;2024-01-30T01:50:31;6.60;54.10
52611;DHT22;38727;40.130;18.292;2024-01-30T01:53:02;6.60;54.20
52611;DHT22;38727;40.130;18.292;2024-01-30T01:55:35;6.50;54.40
52611;DHT22;38727;40.130;18.292;2024-01-30T01:58:07;6.50;54.50
52611;DHT22;38727;40.130;18.292;2024-01-30T02:00:38;6.50;54.50
52611;DHT22;38727;40.130;18.292;2024-01-30T02:03:10;6.50;54.40
52611;DHT22;38727;40.130;18.292;2024-01-30T02:05:42;6.50;54.40
52611;DHT22;38727;40.130;18.292;2024-01-30T02:08:13;6.50;54.30
52611;DHT22;38727;40.130;18.292;2024-01-30T02:10:44;6.50;54.40
52611;DHT22;38727;40.130;18.292;2024-01-30T02:13:15;6.50;54.70
52611;DHT22;38727;40.130;18.292;2024-01-30T02:15:49;6.40;54.90
52611;DHT22;38727;40.130;18.292;2024-01-30T02:18:19;6.30;55.20
52611;DHT22;38727;40.130;18.292;2024-01-30T02:21:11;6.30;55.30
52611;DHT22;38727;40.130;18.292;2024-01-30T02:23:43;6.30;55.50
52611;DHT22;38727;40.130;18.292;2024-01-30T02:26:14;6.30;55.70
52611;DHT22;38727;40.130;18.292;2024-01-30T02:28:45;6.30;55.90
52611;DHT22;38727;40.130;18.292;2024-01-30T02:31:15;6.20;56.10
52611;DHT22;38727;40.130;18.292;2024-01-30T02:33:46;6.20;56.20
52611;DHT22;38727;40.130;18.292;2024-01-30T02:36:18;6.20;56.40
52611;DHT22;38727;40.130;18.292;2024-01-30T02:38:49;6.20;56.30
52611;DHT22;38727;40.130;18.292;2024-01-30T02:41:19;6.10;56.40
52611;DHT22;38727;40.130;18.292;2024-01-30T02:43:49;6.10;56.50
52611;DHT22;38727;40.130;18.292;2024-01-30T02:46:20;6.20;56.40
52611;DHT22;38727;40.130;18.292;2024-01-30T02:48:52;6.20;56.40
52611;DHT22;38727;40.130;18.292;2024-01-30T02:51:24;6.20;56.20
52611;DHT22;38727;40.130;18.292;2024-01-30T02:53:55;6.20;56.00
52611;DHT22;38727;40.130;18.292;2024-01-30T02:56:26;6.30;56.00
52611;DHT22;38727;40.130;18.292;2024-01-30T02:58:56;6.30;55.90
52611;DHT22;38727;40.130;18.292;2024-01-30T03:01:26;6.30;56.00
52611;DHT22;38727;40.130;18.292;2024-01-30T03:03:56;6.20;55.90
52611;DHT22;38727;40.130;18.292;2024-01-30T03:06:28;6.30;56.00
52611;DHT22;38727;40.130;18.292;2024-01-30T03:08:59;6.20;55.90
52611;DHT22;38727;40.130;18.292;2024-01-30T03:11:30;6.20;55.80
52611;DHT22;38727;40.130;18.292;2024-01-30T03:14:00;6.20;55.70
52611;DHT22;38727;40.130;18.292;2024-01-30T03:16:31;6.10;56.00
52611;DHT22;38727;40.130;18.292;2024-01-30T03:19:02;6.00;56.30
52611;DHT22;38727;40.130;18.292;2024-01-30T03:21:33;5.90;56.40
52611;DHT22;38727;40.130;18.292;2024-01-30T03:24:05;5.90;56.50
52611;DHT22;38727;40.130;18.292;2024-01-30T03:26:35;5.90;56.50
52611;DHT22;38727;40.130;18.292;2024-01-30T03:29:06;5.90;56.60
52611;DHT22;38727;40.130;18.292;2024-01-30T03:31:37;5.80;56.60
52611;DHT22;38727;40.130;18.292;2024-01-30T03:34:08;5.80;56.60
52611;DHT22;38727;40.130;18.292;2024-01-30T03:36:40;5.80;56.70
52611;DHT22;38727;40.130;18.292;2024-01-30T03:39:10;5.80;56.80
52611;DHT22;38727;40.130;18.292;2024-01-30T03:41:42;5.80;56.90
52611;DHT22;38727;40.130;18.292;2024-01-30T03:44:13;5.80;57.10
52611;DHT22;38727;40.130;18.292;2024-01-30T03:46:43;5.80;57.30
52611;DHT22;38727;40.130;18.292;2024-01-30T03:49:13;5.80;57.30
52611;DHT22;38727;40.130;18.292;2024-01-30T03:51:45;5.80;57.30
52611;DHT22;38727;40.130;18.292;2024-01-30T03:54:16;5.80;56.90
52611;DHT22;38727;40.130;18.292;2024-01-30T03:56:47;5.80;56.30
52611;DHT22;38727;40.130;18.292;2024-01-30T03:59:17;5.90;55.10
52611;DHT22;38727;40.130;18.292;2024-01-30T04:01:51;6.10;53.50
52611;DHT22;38727;40.130;18.292;2024-01-30T04:04:22;6.30;53.00
52611;DHT22;38727;40.130;18.292;2024-01-30T04:06:54;6.30;52.80
52611;DHT22;38727;40.130;18.292;2024-01-30T04:09:25;6.30;52.60
52611;DHT22;38727;40.130;18.292;2024-01-30T04:11:56;6.30;52.80
52611;DHT22;38727;40.130;18.292;2024-01-30T04:14:27;6.30;52.70
52611;DHT22;38727;40.130;18.292;2024-01-30T04:16:58;6.30;52.50
52611;DHT22;38727;40.130;18.292;2024-01-30T04:19:28;6.30;52.50
52611;DHT22;38727;40.130;18.292;2024-01-30T04:22:02;6.30;52.60
52611;DHT22;38727;40.130;18.292;2024-01-30T04:24:33;6.40;52.50
52611;DHT22;38727;40.130;18.292;2024-01-30T04:27:04;6.30;52.50
52611;DHT22;38727;40.130;18.292;2024-01-30T04:29:34;6.30;52.60
52611;DHT22;38727;40.130;18.292;2024-01-30T04:32:06;6.30;52.60
52611;DHT22;38727;40.130;18.292;2024-01-30T04:34:37;6.30;52.80
52611;DHT22;38727;40.130;18.292;2024-01-30T04:37:10;6.20;53.00
52611;DHT22;38727;40.130;18.292;2024-01-30T04:39:41;6.20;52.60
52611;DHT22;38727;40.130;18.292;2024-01-30T04:42:11;6.30;52.40
52611;DHT22;38727;40.130;18.292;2024-01-30T04:44:42;6.20;52.60
52611;DHT22;38727;40.130;18.292;2024-01-30T04:47:12;6.20;52.80
52611;DHT22;38727;40.130;18.292;2024-01-30T04:49:43;6.30;52.70
52611;DHT22;38727;40.130;18.292;2024-01-30T04:52:16;6.30;52.70
52611;DHT22;38727;40.130;18.292;2024-01-30T04:54:46;6.30;52.10
52611;DHT22;38727;40.130;18.292;2024-01-30T04:57:17;6.40;51.90
52611;DHT22;38727;40.130;18.292;2024-01-30T04:59:48;6.50;51.70
52611;DHT22;38727;40.130;18.292;2024-01-30T05:02:19;6.70;51.40
52611;DHT22;38727;40.130;18.292;2024-01-30T05:04:49;6.80;51.20
52611;DHT22;38727;40.130;18.292;2024-01-30T05:07:21;6.80;50.80
52611;DHT22;38727;40.130;18.292;2024-01-30T05:09:52;6.80;50.50
52611;DHT22;38727;40.130;18.292;2024-01-30T05:12:22;6.90;50.50
52611;DHT22;38727;40.130;18.292;2024-01-30T05:14:53;6.90;50.30
52611;DHT22;38727;40.130;18.292;2024-01-30T05:17:24;6.90;50.20
52611;DHT22;38727;40.130;18.292;2024-01-30T05:19:54;6.90;49.70
52611;DHT22;38727;40.130;18.292;2024-01-30T05:22:26;6.80;49.50
52611;DHT22;38727;40.130;18.292;2024-01-30T05:24:57;6.80;49.60
52611;DHT22;38727;40.130;18.292;2024-01-30T05:27:27;6.80;49.70
52611;DHT22;38727;40.130;18.292;2024-01-30T05:29:58;6.80;49.60
52611;DHT22;38727;40.130;18.292;2024-01-30T05:32:29;6.70;49.40
52611;DHT22;38727;40.130;18.292;2024-01-30T05:35:00;6.80;49.40
52611;DHT22;38727;40.130;18.292;2024-01-30T05:37:32;6.80;49.20
52611;DHT22;38727;40.130;18.292;2024-01-30T05:40:04;6.80;49.20
52611;DHT22;38727;40.130;18.292;2024-01-30T05:42:34;6.80;48.80
52611;DHT22;38727;40.130;18.292;2024-01-30T05:45:05;6.80;48.40
52611;DHT22;38727;40.130;18.292;2024-01-30T05:47:35;6.80;47.70
52611;DHT22;38727;40.130;18.292;2024-01-30T05:50:07;6.80;47.80
52611;DHT22;38727;40.130;18.292;2024-01-30T05:52:40;6.80;47.70
52611;DHT22;38727;40.130;18.292;2024-01-30T05:55:11;6.80;47.50
52611;DHT22;38727;40.130;18.292;2024-01-30T05:57:41;6.90;47.60
52611;DHT22;38727;40.130;18.292;2024-01-30T06:00:13;7.00;47.40
52611;DHT22;38727;40.130;18.292;2024-01-30T06:02:43;7.10;47.60
52611;DHT22;38727;40.130;18.292;2024-01-30T06:05:14;7.10;47.60
52611;DHT22;38727;40.130;18.292;2024-01-30T06:07:47;7.10;47.60
52611;DHT22;38727;40.130;18.292;2024-01-30T06:10:17;7.20;47.40
52611;DHT22;38727;40.130;18.292;2024-01-30T06:12:47;7.20;47.40
52611;DHT22;38727;40.130;18.292;2024-01-30T06:15:19;7.20;47.50
52611;DHT22;38727;40.130;18.292;2024-01-30T06:17:49;7.20;47.40
52611;DHT22;38727;40.130;18.292;2024-01-30T06:20:19;7.30;47.30
52611;DHT22;38727;40.130;18.292;2024-01-30T06:22:50;7.30;47.30
52611;DHT22;38727;40.130;18.292;2024-01-30T06:25:21;7.30;47.40
52611;DHT22;38727;40.130;18.292;2024-01-30T06:27:51;7.30;47.40
52611;DHT22;38727;40.130;18.292;2024-01-30T06:30:22;7.30;47.30
52611;DHT22;38727;40.130;18.292;2024-01-30T06:35:56;7.40;47.20
52611;DHT22;38727;40.130;18.292;2024-01-30T06:38:51;7.50;47.10
52611;DHT22;38727;40.130;18.292;2024-01-30T06:41:41;7.60;47.00
52611;DHT22;38727;40.130;18.292;2024-01-30T06:44:34;7.60;46.90
52611;DHT22;38727;40.130;18.292;2024-01-30T06:47:18;7.70;47.00
52611;DHT22;38727;40.130;18.292;2024-01-30T06:50:45;7.80;46.90
52611;DHT22;38727;40.130;18.292;2024-01-30T06:54:28;7.90;46.70
52611;DHT22;38727;40.130;18.292;2024-01-30T06:57:37;8.00;46.70
52611;DHT22;38727;40.130;18.292;2024-01-30T07:00:42;8.10;46.80
52611;DHT22;38727;40.130;18.292;2024-01-30T07:04:01;8.20;47.20
52611;DHT22;38727;40.130;18.292;2024-01-30T07:07:16;8.40;47.20
52611;DHT22;38727;40.130;18.292;2024-01-30T07:10:59;8.50;47.20
52611;DHT22;38727;40.130;18.292;2024-01-30T07:13:39;8.70;46.90
52611;DHT22;38727;40.130;18.292;2024-01-30T07:16:28;8.80;46.80
52611;DHT22;38727;40.130;18.292;2024-01-30T07:19:53;8.80;46.60
52611;DHT22;38727;40.130;18.292;2024-01-30T07:22:34;8.90;46.60
52611;DHT22;38727;40.130;18.292;2024-01-30T07:25:17;8.90;46.40
52611;DHT22;38727;40.130;18.292;2024-01-30T07:28:30;9.10;46.10
52611;DHT22;38727;40.130;18.292;2024-01-30T07:31:23;9.20;46.10
52611;DHT22;38727;40.130;18.292;2024-01-30T07:34:23;9.30;45.90
52611;DHT22;38727;40.130;18.292;2024-01-30T07:37:07;9.40;45.50
52611;DHT22;38727;40.130;18.292;2024-01-30T07:40:18;9.40;45.20
52611;DHT22;38727;40.130;18.292;2024-01-30T07:43:09;9.50;45.10
52611;DHT22;38727;40.130;18.292;2024-01-30T07:46:03;9.60;45.10
52611;DHT22;38727;40.130;18.292;2024-01-30T07:49:02;9.70;44.90
52611;DHT22;38727;40.130;18.292;2024-01-30T07:51:52;9.80;45.20
52611;DHT22;38727;40.130;18.292;2024-01-30T07:54:53;9.90;44.70
52611;DHT22;38727;40.130;18.292;2024-01-30T07:57:41;10.10;43.90
52611;DHT22;38727;40.130;18.292;2024-01-30T08:01:07;10.10;43.10
52611;DHT22;38727;40.130;18.292;2024-01-30T08:04:02;10.10;42.30
52611;DHT22;38727;40.130;18.292;2024-01-30T08:07:09;10.30;41.70
52611;DHT22;38727;40.130;18.292;2024-01-30T08:10:06;10.30;41.50
52611;DHT22;38727;40.130;18.292;2024-01-30T08:12:52;10.30;40.50
52611;DHT22;38727;40.130;18.292;2024-01-30T08:15:54;10.40;40.60
52611;DHT22;38727;40.130;18.292;2024-01-30T08:18:32;10.40;40.00
52611;DHT22;38727;40.130;18.292;2024-01-30T08:21:10;10.50;40.40
52611;DHT22;38727;40.130;18.292;2024-01-30T08:24:10;10.50;40.50
52611;DHT22;38727;40.130;18.292;2024-01-30T08:26:47;10.50;40.50
52611;DHT22;38727;40.130;18.292;2024-01-30T08:29:22;10.60;40.10
52611;DHT22;38727;40.130;18.292;2024-01-30T08:31:59;10.60;40.50
52611;DHT22;38727;40.130;18.292;2024-01-30T08:34:39;10.70;40.80
52611;DHT22;38727;40.130;18.292;2024-01-30T08:37:20;10.80;40.40
52611;DHT22;38727;40.130;18.292;2024-01-30T08:40:31;10.80;40.70
52611;DHT22;38727;40.130;18.292;2024-01-30T08:43:17;10.90;39.90
52611;DHT22;38727;40.130;18.292;2024-01-30T08:45:59;11.00;39.50
52611;DHT22;38727;40.130;18.292;2024-01-30T08:48:53;11.10;39.50
52611;DHT22;38727;40.130;18.292;2024-01-30T08:51:31;11.20;39.40
52611;DHT22;38727;40.130;18.292;2024-01-30T08:54:52;11.20;39.80
52611;DHT22;38727;40.130;18.292;2024-01-30T08:57:09;11.30;40.30
52611;DHT22;38727;40.130;18.292;2024-01-30T08:59:40;11.40;40.60
52611;DHT22;38727;40.130;18.292;2024-01-30T09:02:49;11.50;40.30
52611;DHT22;38727;40.130;18.292;2024-01-30T09:05:41;11.60;39.50
52611;DHT22;38727;40.130;18.292;2024-01-30T09:08:41;11.70;39.00
52611;DHT22;38727;40.130;18.292;2024-01-30T09:11:39;11.70;38.60
52611;DHT22;38727;40.130;18.292;2024-01-30T09:14:35;11.70;38.10
52611;DHT22;38727;40.130;18.292;2024-01-30T09:17:49;11.80;38.00
52611;DHT22;38727;40.130;18.292;2024-01-30T09:20:30;11.90;38.70
52611;DHT22;38727;40.130;18.292;2024-01-30T09:23:12;12.00;39.00
52611;DHT22;38727;40.130;18.292;2024-01-30T09:26:05;12.10;39.50
52611;DHT22;38727;40.130;18.292;2024-01-30T09:28:47;12.30;39.70
52611;DHT22;38727;40.130;18.292;2024-01-30T09:31:29;12.30;39.70
52611;DHT22;38727;40.130;18.292;2024-01-30T09:34:32;12.30;39.80
52611;DHT22;38727;40.130;18.292;2024-01-30T09:37:08;12.30;39.70
52611;DHT22;38727;40.130;18.292;2024-01-30T09:39:53;12.40;38.90
52611;DHT22;38727;40.130;18.292;2024-01-30T09:42:47;12.50;37.60
52611;DHT22;38727;40.130;18.292;2024-01-30T09:45:32;12.40;37.80
52611;DHT22;38727;40.130;18.292;2024-01-30T09:48:15;12.50;36.90
52611;DHT22;38727;40.130;18.292;2024-01-30T09:51:42;12.40;36.60
52611;DHT22;38727;40.130;18.292;2024-01-30T09:55:06;12.40;36.00
52611;DHT22;38727;40.130;18.292;2024-01-30T09:58:16;12.50;36.40
52611;DHT22;38727;40.130;18.292;2024-01-30T10:01:13;12.60;35.00
52611;DHT22;38727;40.130;18.292;2024-01-30T10:03:51;12.70;35.00
52611;DHT22;38727;40.130;18.292;2024-01-30T10:06:47;12.80;34.60
52611;DHT22;38727;40.130;18.292;2024-01-30T10:09:43;12.90;34.60
52611;DHT22;38727;40.130;18.292;2024-01-30T10:12:21;13.00;34.60
52611;DHT22;38727;40.130;18.292;2024-01-30T10:15:24;13.10;35.40
52611;DHT22;38727;40.130;18.292;2024-01-30T10:18:08;13.30;35.70
52611;DHT22;38727;40.130;18.292;2024-01-30T10:20:45;13.40;36.10
52611;DHT22;38727;40.130;18.292;2024-01-30T10:23:25;13.40;36.70
52611;DHT22;38727;40.130;18.292;2024-01-30T10:26:07;13.50;36.90
52611;DHT22;38727;40.130;18.292;2024-01-30T10:28:41;13.60;36.60
52611;DHT22;38727;40.130;18.292;2024-01-30T10:31:23;13.60;35.70
52611;DHT22;38727;40.130;18.292;2024-01-30T10:34:02;13.50;36.10
52611;DHT22;38727;40.130;18.292;2024-01-30T10:36:46;13.50;35.40
52611;DHT22;38727;40.130;18.292;2024-01-30T10:39:21;13.60;34.60
52611;DHT22;38727;40.130;18.292;2024-01-30T10:42:03;13.80;34.60
52611;DHT22;38727;40.130;18.292;2024-01-30T10:44:56;13.80;32.80
52611;DHT22;38727;40.130;18.292;2024-01-30T10:47:43;13.80;31.70
52611;DHT22;38727;40.130;18.292;2024-01-30T10:50:41;13.80;31.50
52611;DHT22;38727;40.130;18.292;2024-01-30T10:53:14;13.90;31.80
52611;DHT22;38727;40.130;18.292;2024-01-30T10:55:47;13.90;31.50
52611;DHT22;38727;40.130;18.292;2024-01-30T10:58:35;14.00;31.90
52611;DHT22;38727;40.130;18.292;2024-01-30T11:01:08;14.10;32.00
52611;DHT22;38727;40.130;18.292;2024-01-30T11:04:01;14.10;32.10
52611;DHT22;38727;40.130;18.292;2024-01-30T11:06:41;14.20;32.60
52611;DHT22;38727;40.130;18.292;2024-01-30T11:09:21;14.30;32.80
52611;DHT22;38727;40.130;18.292;2024-01-30T11:12:06;14.50;33.20
52611;DHT22;38727;40.130;18.292;2024-01-30T11:15:02;14.60;32.70
52611;DHT22;38727;40.130;18.292;2024-01-30T11:17:47;14.70;33.00
52611;DHT22;38727;40.130;18.292;2024-01-30T11:20:27;14.80;33.40
52611;DHT22;38727;40.130;18.292;2024-01-30T11:23:12;15.00;32.70
52611;DHT22;38727;40.130;18.292;2024-01-30T11:25:52;15.00;32.40
52611;DHT22;38727;40.130;18.292;2024-01-30T11:28:41;15.10;32.70
52611;DHT22;38727;40.130;18.292;2024-01-30T11:31:19;15.30;33.00
52611;DHT22;38727;40.130;18.292;2024-01-30T11:34:04;15.30;32.10
52611;DHT22;38727;40.130;18.292;2024-01-30T11:36:53;15.40;32.20
52611;DHT22;38727;40.130;18.292;2024-01-30T11:39:32;15.40;31.70
52611;DHT22;38727;40.130;18.292;2024-01-30T11:42:24;15.60;31.80
52611;DHT22;38727;40.130;18.292;2024-01-30T11:45:08;15.80;31.00
52611;DHT22;38727;40.130;18.292;2024-01-30T11:47:44;15.80;31.00
52611;DHT22;38727;40.130;18.292;2024-01-30T11:50:16;15.80;30.60
52611;DHT22;38727;40.130;18.292;2024-01-30T11:53:06;15.80;30.70
52611;DHT22;38727;40.130;18.292;2024-01-30T11:55:55;15.90;30.40
52611;DHT22;38727;40.130;18.292;2024-01-30T11:58:49;16.00;30.20
52611;DHT22;38727;40.130;18.292;2024-01-30T12:01:40;16.00;30.00
52611;DHT22;38727;40.130;18.292;2024-01-30T12:04:32;16.00;29.50
52611;DHT22;38727;40.130;18.292;2024-01-30T12:07:11;16.00;30.10
52611;DHT22;38727;40.130;18.292;2024-01-30T12:10:08;16.10;30.00
52611;DHT22;38727;40.130;18.292;2024-01-30T12:13:21;16.30;30.30
52611;DHT22;38727;40.130;18.292;2024-01-30T12:16:12;16.00;29.20
52611;DHT22;38727;40.130;18.292;2024-01-30T12:19:04;15.80;29.70
52611;DHT22;38727;40.130;18.292;2024-01-30T12:22:05;15.70;29.50
52611;DHT22;38727;40.130;18.292;2024-01-30T12:25:13;15.70;29.80
52611;DHT22;38727;40.130;18.292;2024-01-30T12:28:01;15.60;29.60
52611;DHT22;38727;40.130;18.292;2024-01-30T12:30:36;15.40;29.60
52611;DHT22;38727;40.130;18.292;2024-01-30T12:33:19;15.30;29.40
52611;DHT22;38727;40.130;18.292;2024-01-30T12:35:55;15.50;29.40
52611;DHT22;38727;40.130;18.292;2024-01-30T12:38:38;15.60;29.10
52611;DHT22;38727;40.130;18.292;2024-01-30T12:41:14;15.70;28.90
52611;DHT22;38727;40.130;18.292;2024-01-30T12:43:48;15.70;28.40
52611;DHT22;38727;40.130;18.292;2024-01-30T12:46:38;15.70;28.40
52611;DHT22;38727;40.130;18.292;2024-01-30T12:49:17;15.70;28.40
52611;DHT22;38727;40.130;18.292;2024-01-30T12:51:48;15.80;29.00
52611;DHT22;38727;40.130;18.292;2024-01-30T12:54:21;15.90;29.40
52611;DHT22;38727;40.130;18.292;2024-01-30T12:57:11;16.00;29.90
52611;DHT22;38727;40.130;18.292;2024-01-30T12:59:52;15.90;30.10
52611;DHT22;38727;40.130;18.292;2024-01-30T13:02:50;15.80;30.30
52611;DHT22;38727;40.130;18.292;2024-01-30T13:05:29;15.80;30.00
52611;DHT22;38727;40.130;18.292;2024-01-30T13:08:08;15.80;30.50
52611;DHT22;38727;40.130;18.292;2024-01-30T13:10:41;15.80;30.20
52611;DHT22;38727;40.130;18.292;2024-01-30T13:13:20;15.90;30.10
52611;DHT22;38727;40.130;18.292;2024-01-30T13:16:07;16.10;29.70
52611;DHT22;38727;40.130;18.292;2024-01-30T13:18:39;16.30;29.80
52611;DHT22;38727;40.130;18.292;2024-01-30T13:21:22;16.40;29.50
52611;DHT22;38727;40.130;18.292;2024-01-30T13:24:01;16.40;29.70
52611;DHT22;38727;40.130;18.292;2024-01-30T13:26:36;16.40;30.10
52611;DHT22;38727;40.130;18.292;2024-01-30T13:29:19;16.30;30.40
52611;DHT22;38727;40.130;18.292;2024-01-30T13:31:57;16.30;30.70
52611;DHT22;38727;40.130;18.292;2024-01-30T13:34:40;16.30;30.90
52611;DHT22;38727;40.130;18.292;2024-01-30T13:37:13;16.40;31.20
52611;DHT22;38727;40.130;18.292;2024-01-30T13:39:50;16.50;31.00
52611;DHT22;38727;40.130;18.292;2024-01-30T13:42:26;16.60;31.20
52611;DHT22;38727;40.130;18.292;2024-01-30T13:45:02;16.60;31.60
52611;DHT22;38727;40.130;18.292;2024-01-30T13:47:37;16.50;31.70
52611;DHT22;38727;40.130;18.292;2024-01-30T13:50:22;16.60;31.70
52611;DHT22;38727;40.130;18.292;2024-01-30T13:52:53;16.50;31.80
52611;DHT22;38727;40.130;18.292;2024-01-30T13:55:36;16.40;31.80
52611;DHT22;38727;40.130;18.292;2024-01-30T13:58:24;16.40;31.40
52611;DHT22;38727;40.130;18.292;2024-01-30T14:01:18;16.40;31.80
52611;DHT22;38727;40.130;18.292;2024-01-30T14:04:02;16.60;32.20
52611;DHT22;38727;40.130;18.292;2024-01-30T14:07:13;16.60;31.90
52611;DHT22;38727;40.130;18.292;2024-01-30T14:09:53;16.50;32.30
52611;DHT22;38727;40.130;18.292;2024-01-30T14:12:29;16.60;32.20
52611;DHT22;38727;40.130;18.292;2024-01-30T14:15:19;16.60;32.70
52611;DHT22;38727;40.130;18.292;2024-01-30T14:17:58;16.70;33.20
52611;DHT22;38727;40.130;18.292;2024-01-30T14:23:39;17.60;32.70
52611;DHT22;38727;40.130;18.292;2024-01-30T14:26:14;18.30;31.90
52611;DHT22;38727;40.130;18.292;2024-01-30T14:28:56;19.60;29.60
52611;DHT22;38727;40.130;18.292;2024-01-30T14:31:47;22.00;26.50
52611;DHT22;38727;40.130;18.292;2024-01-30T14:34:28;24.00;23.90
52611;DHT22;38727;40.130;18.292;2024-01-30T14:37:29;25.20;22.60
52611;DHT22;38727;40.130;18.292;2024-01-30T14:40:12;26.00;22.60
52611;DHT22;38727;40.130;18.292;2024-01-30T14:43:06;27.20;21.40
52611;DHT22;38727;40.130;18.292;2024-01-30T14:45:56;28.30;20.60
52611;DHT22;38727;40.130;18.292;2024-01-30T14:48:38;28.80;20.50
52611;DHT22;38727;40.130;18.292;2024-01-30T14:51:32;29.40;20.50
52611;DHT22;38727;40.130;18.292;2024-01-30T14:54:20;29.90;20.30
52611;DHT22;38727;40.130;18.292;2024-01-30T14:57:10;30.30;19.90
52611;DHT22;38727;40.130;18.292;2024-01-30T14:59:51;30.30;19.90
52611;DHT22;38727;40.130;18.292;2024-01-30T15:02:27;30.70;19.60
52611;DHT22;38727;40.130;18.292;2024-01-30T15:05:04;31.10;19.30
52611;DHT22;38727;40.130;18.292;2024-01-30T15:07:38;31.20;19.00
52611;DHT22;38727;40.130;18.292;2024-01-30T15:10:15;31.00;18.80
52611;DHT22;38727;40.130;18.292;2024-01-30T15:12:46;30.10;19.60
52611;DHT22;38727;40.130;18.292;2024-01-30T15:15:27;29.80;20.10
52611;DHT22;38727;40.130;18.292;2024-01-30T15:18:14;30.00;20.00
52611;DHT22;38727;40.130;18.292;2024-01-30T15:20:50;29.60;20.40
52611;DHT22;38727;40.130;18.292;2024-01-30T15:23:24;29.00;20.80
52611;DHT22;38727;40.130;18.292;2024-01-30T15:26:43;28.30;21.60
52611;DHT22;38727;40.130;18.292;2024-01-30T15:29:22;28.00;21.90
52611;DHT22;38727;40.130;18.292;2024-01-30T15:32:30;27.20;22.40
52611;DHT22;38727;40.130;18.292;2024-01-30T15:35:05;26.30;23.10
52611;DHT22;38727;40.130;18.292;2024-01-30T15:37:44;26.10;23.60
52611;DHT22;38727;40.130;18.292;2024-01-30T15:40:30;25.80;24.00
52611;DHT22;38727;40.130;18.292;2024-01-30T15:43:04;25.20;24.60
52611;DHT22;38727;40.130;18.292;2024-01-30T15:45:50;24.50;25.30
52611;DHT22;38727;40.130;18.292;2024-01-30T15:48:31;23.20;26.30
52611;DHT22;38727;40.130;18.292;2024-01-30T15:51:20;21.00;28.70
52611;DHT22;38727;40.130;18.292;2024-01-30T15:53:58;18.90;31.40
52611;DHT22;38727;40.130;18.292;2024-01-30T15:56:54;17.40;33.40
52611;DHT22;38727;40.130;18.292;2024-01-30T15:59:25;16.30;35.30
52611;DHT22;38727;40.130;18.292;2024-01-30T16:02:23;15.60;36.60
52611;DHT22;38727;40.130;18.292;2024-01-30T16:05:07;14.80;37.90
52611;DHT22;38727;40.130;18.292;2024-01-30T16:07:56;14.30;39.10
52611;DHT22;38727;40.130;18.292;2024-01-30T16:10:43;13.80;40.10
52611;DHT22;38727;40.130;18.292;2024-01-30T16:13:23;13.30;41.20
52611;DHT22;38727;40.130;18.292;2024-01-30T16:16:09;13.00;41.90
52611;DHT22;38727;40.130;18.292;2024-01-30T16:18:43;12.80;42.40
52611;DHT22;38727;40.130;18.292;2024-01-30T16:21:42;12.70;42.70
52611;DHT22;38727;40.130;18.292;2024-01-30T16:24:30;12.30;43.30
52611;DHT22;38727;40.130;18.292;2024-01-30T16:27:33;12.20;43.70
52611;DHT22;38727;40.130;18.292;2024-01-30T16:34:09;11.90;44.50
52611;DHT22;38727;40.130;18.292;2024-01-30T16:37:31;11.80;44.90
52611;DHT22;38727;40.130;18.292;2024-01-30T16:40:45;11.80;45.00
52611;DHT22;38727;40.130;18.292;2024-01-30T16:43:43;11.60;45.50
52611;DHT22;38727;40.130;18.292;2024-01-30T16:47:26;11.40;46.00
52611;DHT22;38727;40.130;18.292;2024-01-30T16:50:18;11.30;46.60
52611;DHT22;38727;40.130;18.292;2024-01-30T16:53:11;11.20;47.20
52611;DHT22;38727;40.130;18.292;2024-01-30T16:56:10;11.00;47.70
52611;DHT22;38727;40.130;18.292;2024-01-30T16:59:32;10.80;48.20
52611;DHT22;38727;40.130;18.292;2024-01-30T17:02:33;10.60;48.80